Time;durP1;ratioP1;P1;durP2;ratioP2;P2;SDS_P1;SDS_P2;PMS_P1;PMS_P2;Temp;Humidity;BMP_temperature;BMP_pressure;BME280_temperature;BME280_humidity;BME280_pressure;Samples;Min_cycle;Max_cycle;Signal;HPM_P1;HPM_P2
2023/09/13 00:00:17;;;;;;;6.30;5.70;;;21.30;99.90;;;;;;5082934;28;20058;-43
2023/09/13 00:02:43;;;;;;;6.10;5.50;;;21.30;99.90;;;;;;5084633;28;20093;-43
2023/09/13 00:05:09;;;;;;;5.57;5.07;;;21.30;99.90;;;;;;5083957;28;20085;-43
2023/09/13 00:07:36;;;;;;;5.95;5.43;;;21.30;99.90;;;;;;5084061;28;20111;-43
2023/09/13 00:10:02;;;;;;;6.13;5.53;;;21.30;99.90;;;;;;5083881;28;20031;-43
2023/09/13 00:12:30;;;;;;;6.10;5.53;;;21.30;99.90;;;;;;5084662;28;20771;-41
2023/09/13 00:14:55;;;;;;;5.97;5.47;;;21.30;99.90;;;;;;5083685;28;20024;-42
2023/09/13 00:17:22;;;;;;;5.40;4.90;;;21.20;99.90;;;;;;5084263;28;20138;-42
2023/09/13 00:19:48;;;;;;;5.78;5.20;;;21.20;99.90;;;;;;5085082;28;20527;-42
2023/09/13 00:22:14;;;;;;;6.22;5.63;;;21.20;99.90;;;;;;5082676;28;20063;-42
2023/09/13 00:24:39;;;;;;;6.25;5.65;;;21.20;99.90;;;;;;5084488;28;20020;-41
2023/09/13 00:27:05;;;;;;;6.13;5.53;;;21.20;99.90;;;;;;5083574;28;20029;-42
2023/09/13 00:29:34;;;;;;;6.90;5.10;;;21.20;99.90;;;;;;5084335;28;20035;-41
2023/09/13 00:32:01;;;;;;;7.68;5.78;;;21.20;99.90;;;;;;5084088;28;20065;-43
2023/09/13 00:34:30;;;;;;;6.53;5.93;;;21.20;99.90;;;;;;5084784;28;20024;-42
2023/09/13 00:36:56;;;;;;;6.15;5.65;;;21.20;99.90;;;;;;5080208;28;20042;-42
2023/09/13 00:39:24;;;;;;;5.30;4.80;;;21.20;99.90;;;;;;5084504;28;20036;-42
2023/09/13 00:41:50;;;;;;;6.15;5.50;;;21.20;99.90;;;;;;5084554;28;20074;-42
2023/09/13 00:44:15;;;;;;;5.80;5.03;;;21.20;99.90;;;;;;5083911;28;20115;-42
2023/09/13 00:46:43;;;;;;;5.93;5.35;;;21.20;99.90;;;;;;5084410;28;20052;-42
2023/09/13 00:49:09;;;;;;;5.80;5.20;;;21.10;99.90;;;;;;5083726;28;20024;-43
2023/09/13 00:51:35;;;;;;;6.35;5.75;;;21.10;99.90;;;;;;5084461;28;20023;-42
2023/09/13 00:54:03;;;;;;;6.68;6.07;;;21.10;99.90;;;;;;5076816;28;20475;-42
2023/09/13 00:56:33;;;;;;;6.45;5.88;;;21.10;99.90;;;;;;5087818;28;20031;-41
2023/09/13 00:59:00;;;;;;;6.45;5.85;;;21.10;99.90;;;;;;5087547;28;20050;-42
2023/09/13 01:01:27;;;;;;;6.47;5.80;;;21.10;99.90;;;;;;5087706;28;20415;-42
2023/09/13 01:03:57;;;;;;;8.63;7.80;;;21.00;99.90;;;;;;5087280;28;20028;-42
2023/09/13 01:06:22;;;;;;;8.57;7.53;;;21.00;99.90;;;;;;5087632;28;20498;-42
2023/09/13 01:08:48;;;;;;;9.00;6.63;;;20.90;99.90;;;;;;5087986;28;20099;-42
2023/09/13 01:11:14;;;;;;;9.55;6.60;;;20.80;99.90;;;;;;5087165;28;20631;-42
2023/09/13 01:13:45;;;;;;;6.50;5.90;;;20.80;99.90;;;;;;5087578;28;20040;-42
2023/09/13 01:16:27;;;;;;;6.80;6.10;;;20.70;99.90;;;;;;5087721;28;20103;-42
2023/09/13 01:19:14;;;;;;;6.18;5.57;;;20.80;99.90;;;;;;5087136;28;20110;-42
2023/09/13 01:22:00;;;;;;;6.70;6.10;;;20.80;99.90;;;;;;5088208;28;20427;-42
2023/09/13 01:25:03;;;;;;;6.55;5.80;;;20.80;99.90;;;;;;5086859;28;20032;-42
2023/09/13 01:27:40;;;;;;;6.43;5.47;;;20.90;99.90;;;;;;5087285;28;20471;-41
2023/09/13 01:30:08;;;;;;;6.43;5.82;;;20.90;99.90;;;;;;5087420;28;20416;-41
2023/09/13 01:32:34;;;;;;;6.30;5.70;;;20.90;99.90;;;;;;5087111;28;20498;-42
2023/09/13 01:35:00;;;;;;;6.28;5.68;;;20.90;99.90;;;;;;5086263;28;20031;-42
2023/09/13 01:37:29;;;;;;;6.00;5.40;;;20.90;99.90;;;;;;5087678;28;20375;-42
2023/09/13 01:39:55;;;;;;;7.05;6.25;;;20.90;99.90;;;;;;5086233;28;20020;-42
2023/09/13 01:42:22;;;;;;;8.35;7.55;;;21.00;99.90;;;;;;5086686;28;20036;-42
2023/09/13 01:44:48;;;;;;;8.18;7.38;;;20.90;99.90;;;;;;5087444;28;20088;-42
2023/09/13 01:47:15;;;;;;;6.20;5.65;;;20.90;99.90;;;;;;5086338;28;20539;-42
2023/09/13 01:49:42;;;;;;;7.80;7.00;;;20.80;99.90;;;;;;5087580;28;20383;-41
2023/09/13 01:52:08;;;;;;;7.97;6.50;;;20.80;99.90;;;;;;5086277;28;20020;-42
2023/09/13 01:54:34;;;;;;;6.63;6.03;;;20.90;99.90;;;;;;5086229;28;20485;-41
2023/09/13 01:57:00;;;;;;;7.97;7.18;;;20.90;99.90;;;;;;5086645;28;20916;-43
2023/09/13 01:59:26;;;;;;;9.57;7.07;;;20.90;99.90;;;;;;5087205;28;20063;-42
2023/09/13 02:01:51;;;;;;;7.97;6.85;;;21.00;99.90;;;;;;5086315;28;20147;-42
2023/09/13 02:04:18;;;;;;;8.90;7.43;;;21.00;99.90;;;;;;5085379;28;20160;-42
2023/09/13 02:06:43;;;;;;;8.75;7.30;;;20.90;99.90;;;;;;5086921;28;20464;-42
2023/09/13 02:09:10;;;;;;;6.65;6.05;;;20.90;99.90;;;;;;5085613;28;20402;-42
2023/09/13 02:11:36;;;;;;;7.15;6.38;;;20.80;99.90;;;;;;5075433;28;20032;-43
2023/09/13 02:14:02;;;;;;;7.47;6.55;;;20.70;99.90;;;;;;5085090;28;20032;-42
2023/09/13 02:16:28;;;;;;;7.85;6.32;;;20.70;99.90;;;;;;5086225;28;20020;-42
2023/09/13 02:18:53;;;;;;;5.95;5.35;;;20.60;99.90;;;;;;5086637;28;20028;-42
2023/09/13 02:21:19;;;;;;;6.15;5.65;;;20.60;99.90;;;;;;5085130;28;20107;-42
2023/09/13 02:23:45;;;;;;;6.70;6.00;;;20.60;99.90;;;;;;5086990;28;20389;-42
2023/09/13 02:26:24;;;;;;;8.75;6.57;;;20.60;99.90;;;;;;5086200;28;20123;-42
2023/09/13 02:28:50;;;;;;;7.40;6.70;;;20.50;99.90;;;;;;5086164;28;20119;-42
2023/09/13 02:31:26;;;;;;;7.40;6.70;;;20.40;99.90;;;;;;5085708;28;20070;-42
2023/09/13 02:33:53;;;;;;;7.38;6.55;;;20.50;99.90;;;;;;5086446;28;20062;-42
2023/09/13 02:36:19;;;;;;;6.60;5.97;;;20.40;99.90;;;;;;5084717;28;20024;-42
2023/09/13 02:38:44;;;;;;;9.27;7.13;;;20.50;99.90;;;;;;5085915;28;20027;-43
2023/09/13 02:41:10;;;;;;;7.90;7.10;;;20.50;99.90;;;;;;5085106;28;20028;-41
2023/09/13 02:43:36;;;;;;;7.30;6.60;;;20.50;99.90;;;;;;5085523;28;20078;-42
2023/09/13 02:46:02;;;;;;;7.15;6.45;;;20.60;99.90;;;;;;5085479;28;20024;-42
2023/09/13 02:48:29;;;;;;;7.47;6.68;;;20.60;99.90;;;;;;5085957;28;20791;-42
2023/09/13 02:50:57;;;;;;;7.20;6.50;;;20.60;99.90;;;;;;5085027;28;20028;-42
2023/09/13 02:53:23;;;;;;;6.50;5.82;;;20.60;99.90;;;;;;5085301;28;20059;-42
2023/09/13 02:55:48;;;;;;;6.93;6.22;;;20.60;99.90;;;;;;5086185;28;20066;-42
2023/09/13 02:58:14;;;;;;;6.75;6.05;;;20.60;99.90;;;;;;5083914;28;20085;-42
2023/09/13 03:00:43;;;;;;;6.93;6.30;;;20.60;99.90;;;;;;5085279;28;20044;-42
2023/09/13 03:03:09;;;;;;;6.97;6.20;;;20.60;99.90;;;;;;5084985;28;20104;-42
2023/09/13 03:05:34;;;;;;;7.47;6.47;;;20.60;99.90;;;;;;5086223;28;20470;-42
2023/09/13 03:08:00;;;;;;;6.35;5.78;;;20.70;99.90;;;;;;5085032;28;20073;-42
2023/09/13 03:10:27;;;;;;;6.43;5.82;;;20.70;99.90;;;;;;5085316;28;20028;-42
2023/09/13 03:12:52;;;;;;;6.47;5.60;;;20.70;99.90;;;;;;5084877;28;20566;-42
2023/09/13 03:15:18;;;;;;;6.93;6.25;;;20.70;99.90;;;;;;5084162;28;20098;-42
2023/09/13 03:17:43;;;;;;;6.88;6.28;;;20.70;99.90;;;;;;5084547;28;20814;-42
2023/09/13 03:20:12;;;;;;;7.68;6.78;;;20.70;99.90;;;;;;5084625;28;20463;-42
2023/09/13 03:22:37;;;;;;;7.95;7.15;;;20.70;99.90;;;;;;5085438;28;20042;-42
2023/09/13 03:25:05;;;;;;;8.63;7.75;;;20.70;99.90;;;;;;5083910;28;20023;-42
2023/09/13 03:27:32;;;;;;;8.43;7.63;;;20.70;99.90;;;;;;5084775;28;20024;-41
2023/09/13 03:29:58;;;;;;;8.77;7.97;;;20.60;99.90;;;;;;5084916;28;20024;-42
2023/09/13 03:32:24;;;;;;;8.02;7.20;;;20.70;99.90;;;;;;5083961;28;20032;-42
2023/09/13 03:34:51;;;;;;;7.88;7.15;;;20.60;99.90;;;;;;5084871;28;20028;-42
2023/09/13 03:37:17;;;;;;;8.85;7.95;;;20.60;99.90;;;;;;5084522;28;20077;-42
2023/09/13 03:39:46;;;;;;;7.78;6.97;;;20.60;99.90;;;;;;5083989;28;20028;-42
2023/09/13 03:42:12;;;;;;;8.93;7.60;;;20.60;99.90;;;;;;5083978;28;20063;-42
2023/09/13 03:44:37;;;;;;;9.02;8.15;;;20.60;99.90;;;;;;5084931;28;20541;-42
2023/09/13 03:47:03;;;;;;;10.50;8.48;;;20.60;99.90;;;;;;5083620;28;20024;-42
2023/09/13 03:49:29;;;;;;;9.20;8.30;;;20.60;99.90;;;;;;5084601;28;20020;-42
2023/09/13 03:51:54;;;;;;;9.93;8.93;;;20.60;99.90;;;;;;5085552;28;20051;-42
2023/09/13 03:54:20;;;;;;;10.00;9.00;;;20.60;99.90;;;;;;5083473;28;20782;-42
2023/09/13 03:56:45;;;;;;;9.57;8.23;;;20.60;99.90;;;;;;5085394;28;20097;-42
2023/09/13 03:59:11;;;;;;;9.23;8.32;;;20.70;99.90;;;;;;5084234;28;20487;-42
2023/09/13 04:01:37;;;;;;;8.48;7.57;;;20.70;99.90;;;;;;5083737;28;20150;-42
2023/09/13 04:04:02;;;;;;;11.20;8.95;;;20.80;99.90;;;;;;5083748;28;20036;-42
2023/09/13 04:06:28;;;;;;;11.15;9.90;;;20.80;99.90;;;;;;5083522;28;20237;-42
2023/09/13 04:08:54;;;;;;;11.63;10.43;;;20.80;99.90;;;;;;5084620;28;20028;-42
2023/09/13 04:11:19;;;;;;;11.43;9.80;;;20.80;99.90;;;;;;5084011;28;20636;-43
2023/09/13 04:13:45;;;;;;;12.02;10.70;;;20.80;99.90;;;;;;5083622;28;20028;-42
2023/09/13 04:16:15;;;;;;;12.73;10.50;;;20.80;99.90;;;;;;5084251;28;20779;-42
2023/09/13 04:18:43;;;;;;;15.80;11.23;;;20.80;99.90;;;;;;5084685;28;20057;-42
2023/09/13 04:21:15;;;;;;;12.35;11.00;;;20.80;99.90;;;;;;5083536;28;20032;-43
2023/09/13 04:23:47;;;;;;;12.55;11.25;;;20.80;99.90;;;;;;5084474;28;20035;-42
2023/09/13 04:26:13;;;;;;;12.48;11.07;;;20.80;99.90;;;;;;5086165;28;20016;-42
2023/09/13 04:28:38;;;;;;;13.15;11.50;;;20.80;99.90;;;;;;5087483;28;20032;-42
2023/09/13 04:31:04;;;;;;;15.18;12.85;;;20.80;99.90;;;;;;5088202;28;20110;-42
2023/09/13 04:33:46;;;;;;;19.88;15.98;;;20.70;99.90;;;;;;5088630;28;20030;-42
2023/09/13 04:36:12;;;;;;;17.90;14.20;;;20.70;99.90;;;;;;5085245;28;20042;-43
2023/09/13 04:38:37;;;;;;;19.75;16.13;;;20.60;99.90;;;;;;5088469;28;20032;-42
2023/09/13 04:41:05;;;;;;;18.42;15.93;;;20.60;99.90;;;;;;5087167;28;20136;-43
2023/09/13 04:43:36;;;;;;;19.52;15.75;;;20.60;99.90;;;;;;5088089;28;20070;-42
2023/09/13 04:46:02;;;;;;;15.57;13.90;;;20.50;99.90;;;;;;5087778;28;20022;-43
2023/09/13 04:48:28;;;;;;;20.25;15.52;;;20.50;99.90;;;;;;5087883;28;20031;-42
2023/09/13 04:50:53;;;;;;;18.50;15.20;;;20.40;99.90;;;;;;5087867;28;20354;-43
2023/09/13 04:53:19;;;;;;;17.17;13.82;;;20.40;99.90;;;;;;5087110;28;20034;-43
2023/09/13 04:55:47;;;;;;;18.70;16.10;;;20.40;99.90;;;;;;5087447;28;20107;-42
2023/09/13 04:58:13;;;;;;;21.15;16.92;;;20.30;99.90;;;;;;5087619;28;20500;-42
2023/09/13 05:00:38;;;;;;;24.42;19.42;;;20.30;99.90;;;;;;5087413;28;20040;-42
2023/09/13 05:03:04;;;;;;;23.70;18.00;;;20.30;99.90;;;;;;5086909;28;20081;-42
2023/09/13 05:05:29;;;;;;;28.10;21.50;;;20.30;99.90;;;;;;5087051;28;20696;-43
2023/09/13 05:07:55;;;;;;;28.23;23.42;;;20.20;99.90;;;;;;5087544;28;20071;-43
2023/09/13 05:10:21;;;;;;;27.73;23.15;;;20.20;99.90;;;;;;5086878;28;20464;-42
2023/09/13 05:12:49;;;;;;;26.30;22.20;;;20.10;99.90;;;;;;5088088;28;20024;-42
2023/09/13 05:15:15;;;;;;;26.23;21.88;;;20.10;99.90;;;;;;5086571;28;20586;-43
2023/09/13 05:17:41;;;;;;;31.17;22.75;;;20.10;99.90;;;;;;5086885;28;20111;-41
2023/09/13 05:20:07;;;;;;;27.90;21.70;;;20.00;99.90;;;;;;5087433;28;20114;-43
2023/09/13 05:22:33;;;;;;;25.60;19.98;;;20.00;99.90;;;;;;5087464;28;20143;-42
2023/09/13 05:25:00;;;;;;;23.38;17.65;;;20.00;99.90;;;;;;5086758;28;20099;-42
2023/09/13 05:27:29;;;;;;;25.02;20.88;;;19.90;99.90;;;;;;5087462;28;20039;-42
2023/09/13 05:29:55;;;;;;;26.67;19.77;;;19.90;99.90;;;;;;5087240;28;20012;-42
2023/09/13 05:32:21;;;;;;;25.38;18.75;;;20.00;99.90;;;;;;5085956;28;20024;-42
2023/09/13 05:34:46;;;;;;;33.50;25.92;;;20.00;99.90;;;;;;5088104;28;20026;-42
2023/09/13 05:37:12;;;;;;;33.33;26.25;;;20.00;99.90;;;;;;5085787;28;20517;-42
2023/09/13 05:39:38;;;;;;;30.58;23.15;;;20.00;99.90;;;;;;5086674;28;20073;-42
2023/09/13 05:42:07;;;;;;;24.63;19.90;;;19.90;99.90;;;;;;5085577;28;20668;-42
2023/09/13 05:44:33;;;;;;;31.02;23.70;;;20.00;99.90;;;;;;5086914;28;20039;-43
2023/09/13 05:46:58;;;;;;;27.95;21.80;;;20.00;99.90;;;;;;5086044;28;20012;-43
2023/09/13 05:49:24;;;;;;;26.90;21.52;;;19.90;99.90;;;;;;5086547;28;20020;-43
2023/09/13 05:51:50;;;;;;;44.50;31.25;;;20.00;99.90;;;;;;5086472;28;20024;-43
2023/09/13 05:54:15;;;;;;;36.20;27.38;;;19.90;99.90;;;;;;5086295;28;20611;-43
2023/09/13 05:56:41;;;;;;;32.80;25.88;;;19.90;99.90;;;;;;5087017;28;20525;-43
2023/09/13 05:59:08;;;;;;;27.30;21.00;;;19.90;99.90;;;;;;5084827;28;20137;-43
2023/09/13 06:01:34;;;;;;;27.35;19.90;;;19.90;99.90;;;;;;5085981;28;20502;-43
2023/09/13 06:04:01;;;;;;;26.23;20.83;;;19.90;99.90;;;;;;5086102;28;20024;-43
2023/09/13 06:06:26;;;;;;;24.08;18.58;;;19.90;99.90;;;;;;5085519;28;20031;-43
2023/09/13 06:08:52;;;;;;;22.08;18.83;;;19.90;99.90;;;;;;5086608;28;20024;-43
2023/09/13 06:11:18;;;;;;;22.77;17.88;;;20.00;99.90;;;;;;5085755;28;20548;-43
2023/09/13 06:13:43;;;;;;;24.88;18.60;;;20.00;99.90;;;;;;5085635;28;20028;-42
2023/09/13 06:16:09;;;;;;;24.90;18.42;;;20.00;99.90;;;;;;5085833;28;20016;-43
2023/09/13 06:18:35;;;;;;;21.15;17.67;;;20.00;99.90;;;;;;5085984;28;20378;-43
2023/09/13 06:21:03;;;;;;;24.65;18.77;;;20.00;99.90;;;;;;5085703;28;20482;-42
2023/09/13 06:23:34;;;;;;;24.85;18.30;;;20.10;99.90;;;;;;5086413;28;20035;-43
2023/09/13 06:26:00;;;;;;;23.75;18.65;;;20.00;99.90;;;;;;5085831;28;20031;-43
2023/09/13 06:28:25;;;;;;;29.55;22.35;;;20.00;99.90;;;;;;5085527;28;20034;-43
2023/09/13 06:30:51;;;;;;;24.60;20.20;;;20.00;99.90;;;;;;5085547;28;20036;-42
2023/09/13 06:33:17;;;;;;;27.67;20.58;;;20.10;99.90;;;;;;5085504;28;20032;-43
2023/09/13 06:35:42;;;;;;;21.42;16.50;;;20.20;99.90;;;;;;5085509;28;20032;-43
2023/09/13 06:38:08;;;;;;;20.33;16.65;;;20.20;99.90;;;;;;5085030;28;20465;-43
2023/09/13 06:40:35;;;;;;;25.42;19.83;;;20.20;99.90;;;;;;5086099;28;20024;-44
2023/09/13 06:43:01;;;;;;;23.90;17.27;;;20.20;99.90;;;;;;5084199;28;20135;-43
2023/09/13 06:45:27;;;;;;;21.90;16.80;;;20.20;99.90;;;;;;5085716;28;20106;-42
2023/09/13 06:47:52;;;;;;;18.05;15.35;;;20.20;99.90;;;;;;5086220;28;20061;-42
2023/09/13 06:50:18;;;;;;;21.90;17.10;;;20.20;99.90;;;;;;5084184;28;20016;-42
2023/09/13 06:52:43;;;;;;;20.55;16.10;;;20.20;99.90;;;;;;5086153;28;20907;-43
2023/09/13 06:55:09;;;;;;;24.42;18.48;;;20.30;99.90;;;;;;5084476;28;20099;-43
2023/09/13 06:57:34;;;;;;;20.25;16.35;;;20.20;99.90;;;;;;5085565;28;20496;-43
2023/09/13 07:00:00;;;;;;;14.82;11.10;;;20.30;99.90;;;;;;5085043;28;20056;-43
2023/09/13 07:02:29;;;;;;;8.05;6.80;;;20.20;99.90;;;;;;5084611;28;20060;-43
2023/09/13 07:04:55;;;;;;;4.75;3.85;;;20.00;99.90;;;;;;5085363;28;20024;-42
2023/09/13 07:07:23;;;;;;;2.05;1.85;;;19.90;99.90;;;;;;5085030;28;20028;-42
2023/09/13 07:09:52;;;;;;;1.40;1.20;;;19.60;99.90;;;;;;5084843;28;20020;-43
2023/09/13 07:12:17;;;;;;;0.93;0.93;;;19.40;99.90;;;;;;5084682;28;20498;-42
2023/09/13 07:14:43;;;;;;;0.85;0.70;;;19.20;99.90;;;;;;5085113;28;20032;-43
2023/09/13 07:17:09;;;;;;;1.55;0.60;;;19.00;99.90;;;;;;5083974;28;20032;-42
2023/09/13 07:19:34;;;;;;;0.60;0.50;;;18.80;99.90;;;;;;5084880;28;20028;-42
2023/09/13 07:22:00;;;;;;;0.88;0.60;;;18.70;99.90;;;;;;5084554;28;20536;-43
2023/09/13 07:24:26;;;;;;;1.05;0.60;;;18.60;99.90;;;;;;5084408;28;20051;-42
2023/09/13 07:26:51;;;;;;;0.70;0.47;;;18.50;99.90;;;;;;5085334;28;20024;-42
2023/09/13 07:29:20;;;;;;;3.05;0.50;;;18.50;99.90;;;;;;5084934;28;20028;-42
2023/09/13 07:31:46;;;;;;;1.58;0.50;;;18.40;99.90;;;;;;5084141;28;20471;-43
2023/09/13 07:34:15;;;;;;;0.73;0.52;;;18.40;99.90;;;;;;5084654;28;20115;-43
2023/09/13 07:36:40;;;;;;;1.33;0.70;;;18.40;99.90;;;;;;5085380;28;20047;-42
2023/09/13 07:39:15;;;;;;;1.17;0.70;;;18.30;99.90;;;;;;5084198;28;20467;-43
2023/09/13 07:41:42;;;;;;;1.05;0.63;;;18.20;99.90;;;;;;5084646;28;20069;-42
2023/09/13 07:44:11;;;;;;;1.67;0.60;;;18.20;99.90;;;;;;5084388;28;20028;-43
2023/09/13 07:46:37;;;;;;;1.35;0.70;;;18.20;99.90;;;;;;5083880;28;20020;-42
2023/09/13 07:49:04;;;;;;;1.45;0.70;;;18.30;99.90;;;;;;5084797;28;20042;-43
2023/09/13 07:51:30;;;;;;;1.17;0.60;;;18.30;99.90;;;;;;5083805;28;20047;-42
2023/09/13 07:54:03;;;;;;;1.67;0.80;;;18.40;99.90;;;;;;5084578;28;20462;-42
2023/09/13 07:56:29;;;;;;;0.80;0.60;;;18.40;99.90;;;;;;5084539;28;20459;-42
2023/09/13 07:58:55;;;;;;;1.30;0.70;;;18.40;99.90;;;;;;5083626;28;20539;-41
2023/09/13 08:01:20;;;;;;;0.90;0.68;;;18.40;99.90;;;;;;5083381;28;20055;-41
2023/09/13 08:03:55;;;;;;;1.75;1.00;;;18.40;99.90;;;;;;5085154;28;20036;-41
2023/09/13 08:06:22;;;;;;;1.67;0.80;;;18.40;99.90;;;;;;5083125;28;20459;-41
2023/09/13 08:08:48;;;;;;;0.70;0.50;;;18.40;99.90;;;;;;5084411;28;20035;-42
2023/09/13 08:11:14;;;;;;;1.42;0.90;;;18.40;99.90;;;;;;5084221;28;20020;-42
2023/09/13 08:13:40;;;;;;;1.33;0.70;;;18.40;99.90;;;;;;5083861;28;20038;-42
2023/09/13 08:16:15;;;;;;;1.55;0.75;;;18.40;99.90;;;;;;5083616;28;20379;-42
2023/09/13 08:18:41;;;;;;;2.97;0.73;;;18.40;99.90;;;;;;5084210;28;20032;-41
2023/09/13 08:21:07;;;;;;;1.63;0.75;;;18.50;99.90;;;;;;5082813;28;20081;-41
2023/09/13 08:23:32;;;;;;;1.38;0.70;;;18.50;99.90;;;;;;5080699;28;20048;-41
2023/09/13 08:25:58;;;;;;;1.33;0.70;;;18.50;99.90;;;;;;5084503;28;20020;-41
2023/09/13 08:28:24;;;;;;;1.70;0.75;;;18.50;99.90;;;;;;5083688;28;20031;-41
2023/09/13 08:30:49;;;;;;;2.45;0.90;;;18.50;99.90;;;;;;5084597;28;20073;-41
2023/09/13 08:33:16;;;;;;;1.88;0.80;;;18.40;99.90;;;;;;5083094;28;20028;-42
2023/09/13 08:35:42;;;;;;;1.02;0.70;;;18.40;99.90;;;;;;5063542;28;20031;-42
2023/09/13 08:38:08;;;;;;;2.90;0.90;;;18.40;99.90;;;;;;5078034;28;20021;-43
2023/09/13 08:40:41;;;;;;;1.60;0.80;;;18.30;99.90;;;;;;5084213;28;20024;-42
2023/09/13 08:43:12;;;;;;;1.58;0.90;;;18.30;99.90;;;;;;5083452;28;20044;-42
2023/09/13 08:45:38;;;;;;;2.97;0.90;;;18.30;99.90;;;;;;5084115;28;20275;-42
2023/09/13 08:48:09;;;;;;;1.83;1.10;;;18.40;99.90;;;;;;5083211;28;20658;-42
2023/09/13 08:50:36;;;;;;;1.00;0.90;;;18.40;99.90;;;;;;5084345;28;20024;-42
2023/09/13 08:53:03;;;;;;;1.45;1.00;;;18.40;99.90;;;;;;5084278;28;20103;-44
2023/09/13 08:55:31;;;;;;;2.40;1.20;;;18.50;99.90;;;;;;5083333;28;20637;-43
2023/09/13 08:57:57;;;;;;;1.33;0.98;;;18.40;99.90;;;;;;5083374;28;20577;-43
2023/09/13 09:00:28;;;;;;;1.52;0.90;;;18.40;99.90;;;;;;5083767;28;20035;-43
2023/09/13 09:03:00;;;;;;;1.88;1.00;;;18.30;99.90;;;;;;5083088;28;20064;-43
2023/09/13 09:05:27;;;;;;;2.60;0.93;;;18.30;99.90;;;;;;5073352;28;20020;-43
2023/09/13 09:07:56;;;;;;;1.80;0.93;;;18.20;99.90;;;;;;5084568;28;20024;-42
2023/09/13 09:10:23;;;;;;;1.35;0.98;;;18.20;99.90;;;;;;5082425;28;20103;-42
2023/09/13 09:12:52;;;;;;;1.83;1.10;;;18.10;99.90;;;;;;5084822;28;20024;-42
2023/09/13 09:15:19;;;;;;;1.67;0.80;;;18.10;99.90;;;;;;5083396;28;20052;-42
2023/09/13 09:17:47;;;;;;;1.55;0.98;;;18.10;99.90;;;;;;5086867;28;20470;-42
2023/09/13 09:20:18;;;;;;;1.73;0.80;;;18.10;99.90;;;;;;5087162;28;20023;-42
2023/09/13 09:22:43;;;;;;;1.60;0.80;;;18.20;99.90;;;;;;5087314;28;20067;-42
2023/09/13 09:25:11;;;;;;;2.80;1.00;;;18.30;99.90;;;;;;5085886;28;20535;-42
2023/09/13 09:27:38;;;;;;;0.93;0.80;;;18.40;99.90;;;;;;5087427;28;20032;-43
2023/09/13 09:30:05;;;;;;;1.83;0.90;;;18.50;99.90;;;;;;5085959;28;20098;-43
2023/09/13 09:32:31;;;;;;;1.70;0.90;;;18.60;99.90;;;;;;5087479;28;20031;-43
2023/09/13 09:35:00;;;;;;;2.38;0.85;;;18.70;99.90;;;;;;5086754;28;20049;-43
2023/09/13 09:37:33;;;;;;;1.45;0.95;;;18.70;99.90;;;;;;5086509;28;20076;-43
2023/09/13 09:39:59;;;;;;;1.45;0.80;;;18.80;99.90;;;;;;5087235;28;20024;-43
2023/09/13 09:42:25;;;;;;;2.70;0.90;;;18.90;99.90;;;;;;5087815;28;20084;-42
2023/09/13 09:44:52;;;;;;;1.17;0.70;;;19.00;99.90;;;;;;5086469;28;20028;-43
2023/09/13 09:47:18;;;;;;;1.90;0.70;;;19.10;99.90;;;;;;5086671;28;20395;-42
2023/09/13 09:49:48;;;;;;;1.50;0.80;;;19.30;99.90;;;;;;5087059;28;20504;-44
2023/09/13 09:52:17;;;;;;;1.67;0.80;;;19.40;99.90;;;;;;5085768;28;20479;-42
2023/09/13 09:54:51;;;;;;;1.58;0.95;;;19.50;99.90;;;;;;5086291;28;20631;-42
2023/09/13 09:57:22;;;;;;;1.17;0.82;;;19.70;99.90;;;;;;5086661;28;20024;-42
2023/09/13 09:59:48;;;;;;;1.27;0.70;;;19.70;99.90;;;;;;5085780;28;20081;-42
2023/09/13 10:02:13;;;;;;;1.00;0.65;;;19.70;99.90;;;;;;5085987;28;20410;-42
2023/09/13 10:04:47;;;;;;;1.20;0.70;;;19.70;99.90;;;;;;5086504;28;20123;-42
2023/09/13 10:07:15;;;;;;;1.58;0.73;;;19.80;99.90;;;;;;5086106;28;20028;-42
2023/09/13 10:09:47;;;;;;;1.30;0.90;;;19.90;99.90;;;;;;5086266;28;20021;-42
2023/09/13 10:12:16;;;;;;;1.70;0.98;;;20.00;99.90;;;;;;5081765;28;20043;-43
2023/09/13 10:14:45;;;;;;;1.77;1.00;;;20.00;99.90;;;;;;5086716;28;20067;-42
2023/09/13 10:17:11;;;;;;;2.88;1.17;;;20.00;99.90;;;;;;5085462;28;20080;-42
2023/09/13 10:19:37;;;;;;;1.90;1.00;;;20.00;99.90;;;;;;5085309;28;20036;-42
2023/09/13 10:22:03;;;;;;;2.75;1.20;;;19.90;99.90;;;;;;5085238;28;20052;-42
2023/09/13 10:24:44;;;;;;;2.75;1.17;;;20.00;99.90;;;;;;5086037;28;20039;-42
2023/09/13 10:27:13;;;;;;;1.95;1.30;;;20.00;99.90;;;;;;5084584;28;20574;-42
2023/09/13 10:29:43;;;;;;;1.63;1.00;;;20.10;99.90;;;;;;5086315;28;20039;-43
2023/09/13 10:32:13;;;;;;;1.60;1.25;;;20.10;99.90;;;;;;5086170;28;20024;-42
2023/09/13 10:35:00;;;;;;;2.72;1.17;;;20.10;99.90;;;;;;5085463;28;20089;-42
2023/09/13 10:37:48;;;;;;;1.95;1.48;;;20.00;99.90;;;;;;5085788;28;20542;-42
2023/09/13 10:40:26;;;;;;;2.80;1.27;;;20.10;99.90;;;;;;5084977;28;20413;-43
2023/09/13 10:42:53;;;;;;;1.98;1.38;;;20.00;99.90;;;;;;5085646;28;20514;-42
2023/09/13 10:45:19;;;;;;;2.97;1.77;;;20.00;99.90;;;;;;5086227;28;20066;-42
2023/09/13 10:47:49;;;;;;;1.98;1.15;;;20.20;99.90;;;;;;5084901;28;20028;-42
2023/09/13 10:50:16;;;;;;;2.63;1.50;;;20.20;99.90;;;;;;5064840;28;20028;-42
2023/09/13 10:52:43;;;;;;;3.38;1.50;;;20.30;99.90;;;;;;5080382;28;20027;-42
2023/09/13 10:55:10;;;;;;;2.28;1.27;;;20.40;99.90;;;;;;5084298;28;20059;-42
2023/09/13 10:57:37;;;;;;;3.22;1.40;;;20.40;99.90;;;;;;5085089;28;20028;-43
2023/09/13 11:00:12;;;;;;;1.67;1.38;;;20.50;99.90;;;;;;5085588;28;20076;-43
2023/09/13 11:02:40;;;;;;;3.35;1.90;;;20.50;99.90;;;;;;5084244;28;20423;-43
2023/09/13 11:05:07;;;;;;;2.72;1.48;;;20.50;99.90;;;;;;5085480;28;20024;-42
2023/09/13 11:07:36;;;;;;;4.25;1.67;;;20.50;99.90;;;;;;5084981;28;20024;-42
2023/09/13 11:10:04;;;;;;;2.15;1.30;;;20.50;99.90;;;;;;5084326;28;20081;-42
2023/09/13 11:12:35;;;;;;;1.75;1.30;;;20.50;99.90;;;;;;5085213;28;20016;-42
2023/09/13 11:15:21;;;;;;;3.17;1.60;;;20.60;99.90;;;;;;5085012;28;20032;-42
2023/09/13 11:17:47;;;;;;;3.00;1.50;;;20.60;99.90;;;;;;5084322;28;20020;-42
2023/09/13 11:20:32;;;;;;;1.75;1.33;;;20.60;99.90;;;;;;5084681;28;20081;-42
2023/09/13 11:23:14;;;;;;;2.38;1.40;;;20.60;99.90;;;;;;5084633;28;20039;-42
2023/09/13 11:25:57;;;;;;;3.15;1.15;;;20.60;99.90;;;;;;5085257;28;20031;-41
2023/09/13 11:28:43;;;;;;;2.75;1.10;;;20.60;99.90;;;;;;5084509;28;20031;-42
2023/09/13 11:31:10;;;;;;;2.85;0.93;;;20.60;99.90;;;;;;5083908;28;20376;-42
2023/09/13 11:33:57;;;;;;;2.60;1.25;;;20.60;99.90;;;;;;5084750;28;20016;-43
2023/09/13 11:36:27;;;;;;;1.75;1.30;;;20.70;99.90;;;;;;5083058;28;20024;-42
2023/09/13 11:38:54;;;;;;;2.33;1.10;;;20.70;99.90;;;;;;5084651;28;20032;-43
2023/09/13 11:41:20;;;;;;;2.75;1.10;;;20.60;99.90;;;;;;5085386;28;20056;-43
2023/09/13 11:43:48;;;;;;;2.08;1.13;;;20.60;99.90;;;;;;5084133;28;20111;-43
2023/09/13 11:46:37;;;;;;;3.17;1.20;;;20.70;99.90;;;;;;5084702;28;20024;-43
2023/09/13 11:49:03;;;;;;;2.08;1.08;;;20.70;99.90;;;;;;5083789;28;20036;-42
2023/09/13 11:51:31;;;;;;;1.65;0.90;;;20.70;99.90;;;;;;5084836;28;20065;-41
2023/09/13 11:54:11;;;;;;;1.85;1.05;;;20.70;99.90;;;;;;5084022;28;20038;-42
2023/09/13 11:56:43;;;;;;;3.42;1.00;;;20.70;99.90;;;;;;5084685;28;20040;-43
2023/09/13 11:59:12;;;;;;;1.80;0.90;;;20.70;99.90;;;;;;5084264;28;20111;-42
2023/09/13 12:01:45;;;;;;;2.60;1.05;;;20.70;99.90;;;;;;5084468;28;20044;-42
2023/09/13 12:04:11;;;;;;;2.03;0.90;;;20.70;99.90;;;;;;5084240;28;20550;-42
2023/09/13 12:06:56;;;;;;;1.88;1.10;;;20.70;99.90;;;;;;5083626;28;20106;-42
2023/09/13 12:09:23;;;;;;;2.28;0.98;;;20.60;99.90;;;;;;5084167;28;20024;-42
2023/09/13 12:11:51;;;;;;;2.55;0.93;;;20.50;99.90;;;;;;5084459;28;20028;-43
2023/09/13 12:14:21;;;;;;;0.85;0.70;;;20.50;99.90;;;;;;5084069;28;20183;-42
2023/09/13 12:16:50;;;;;;;1.10;0.63;;;20.50;99.90;;;;;;5074057;28;20393;-43
2023/09/13 12:19:28;;;;;;;1.50;0.88;;;20.60;99.90;;;;;;5084038;28;20104;-43
2023/09/13 12:21:53;;;;;;;1.58;1.10;;;20.70;99.90;;;;;;5084734;28;20036;-42
2023/09/13 12:24:20;;;;;;;2.08;0.90;;;20.80;99.90;;;;;;5084108;28;20361;-43
2023/09/13 12:26:45;;;;;;;2.00;1.00;;;20.80;99.90;;;;;;5083587;28;20028;-43
2023/09/13 12:29:14;;;;;;;2.33;1.30;;;20.70;99.90;;;;;;5084302;28;20073;-42
2023/09/13 12:31:43;;;;;;;1.88;1.50;;;20.60;99.90;;;;;;5084577;28;20058;-43
2023/09/13 12:34:12;;;;;;;3.30;1.40;;;20.40;99.90;;;;;;5083644;28;20021;-43
2023/09/13 12:36:40;;;;;;;2.08;1.20;;;20.20;99.90;;;;;;5072675;28;20071;-43
2023/09/13 12:39:14;;;;;;;4.10;1.50;;;20.00;99.90;;;;;;5083951;28;20103;-43
2023/09/13 12:41:40;;;;;;;5.00;1.63;;;19.90;99.90;;;;;;5083695;28;20077;-42
2023/09/13 12:44:05;;;;;;;2.65;1.33;;;19.90;99.90;;;;;;5083754;28;20036;-42
2023/09/13 12:46:31;;;;;;;4.10;1.73;;;19.80;99.90;;;;;;5084570;28;20490;-42